Shorkot Weather



Shorkot's Current Weather

Temprature 16.09o overcast clouds

overcast clouds

Rain: 0 %

Min Temprature16.09o
Max Temprature16.09o
Humidity29
Wind Speed3.69 m/h
Sun Rise06:59:43
Sun Set17:10:46
Current Time: 12-Dec-2019 01:28:56
Lat/Lon: 30.83, 72.08




Shorkot's Geo Location



Shorkot's Weather Forecast

Time Overall Temp Min Temp Max Temp Humidity Wind Speed Rain
12-Dec-2019 (Thu)
02:00:00 overcast clouds 16.090 16.090 16.090 29 3.69 m/h 0 %
05:00:00 overcast clouds 15.520 15.520 15.520 29 3.05 m/h 0 %
08:00:00 overcast clouds 14.990 14.990 14.990 39 5.51 m/h 0 %
11:00:00 overcast clouds 14.610 14.610 14.610 71 4.95 m/h 0 %
14:00:00 moderate rain 12.300 12.300 12.300 83 1.34 m/h 356 %
17:00:00 light rain 11.790 11.790 11.790 83 2.88 m/h 194 %
20:00:00 light rain 12.460 12.460 12.460 82 2.29 m/h 31 %
23:00:00 overcast clouds 11.990 11.990 11.990 81 1.41 m/h 0 %
13-Dec-2019 (Fri)
02:00:00 broken clouds 11.250 11.250 11.250 86 1.84 m/h 0 %
05:00:00 broken clouds 10.050 10.050 10.050 90 0.53 m/h 0 %
08:00:00 clear sky 11.130 11.130 11.130 83 0.21 m/h 0 %
11:00:00 clear sky 15.430 15.430 15.430 59 2.11 m/h 0 %
14:00:00 clear sky 17.500 17.500 17.500 48 2.13 m/h 0 %
17:00:00 clear sky 15.920 15.920 15.920 52 0.43 m/h 0 %
20:00:00 clear sky 14.480 14.480 14.480 57 1.38 m/h 0 %
23:00:00 clear sky 13.350 13.350 13.350 63 2.74 m/h 0 %
14-Dec-2019 (Sat)
02:00:00 clear sky 12.590 12.590 12.590 68 2.41 m/h 0 %
05:00:00 clear sky 11.820 11.820 11.820 72 2.19 m/h 0 %
08:00:00 clear sky 12.280 12.280 12.280 71 2.15 m/h 0 %
11:00:00 clear sky 17.400 17.400 17.400 49 2.25 m/h 0 %
14:00:00 clear sky 19.360 19.360 19.360 40 2.05 m/h 0 %
17:00:00 scattered clouds 17.770 17.770 17.770 44 1.31 m/h 0 %
20:00:00 broken clouds 15.600 15.600 15.600 51 2.66 m/h 0 %
23:00:00 overcast clouds 14.730 14.730 14.730 54 2.11 m/h 0 %
15-Dec-2019 (Sun)
02:00:00 overcast clouds 14.050 14.050 14.050 57 1.74 m/h 0 %
05:00:00 overcast clouds 13.010 13.010 13.010 61 0.8 m/h 0 %
08:00:00 few clouds 13.280 13.280 13.280 61 1.58 m/h 0 %
11:00:00 few clouds 18.120 18.120 18.120 44 2.98 m/h 0 %
14:00:00 clear sky 19.820 19.820 19.820 35 3.12 m/h 0 %
17:00:00 clear sky 17.690 17.690 17.690 39 1.61 m/h 0 %
20:00:00 clear sky 15.400 15.400 15.400 44 0.49 m/h 0 %
23:00:00 clear sky 14.200 14.200 14.200 48 0.55 m/h 0 %
16-Dec-2019 (Mon)
02:00:00 clear sky 13.370 13.370 13.370 50 1.58 m/h 0 %
05:00:00 clear sky 12.110 12.110 12.110 56 1.63 m/h 0 %
08:00:00 clear sky 12.680 12.680 12.680 54 1.18 m/h 0 %
11:00:00 clear sky 18.390 18.390 18.390 36 2.59 m/h 0 %
14:00:00 clear sky 20.370 20.370 20.370 27 3.7 m/h 0 %
17:00:00 clear sky 17.810 17.810 17.810 29 2.59 m/h 0 %
20:00:00 clear sky 15.860 15.860 15.860 32 2.13 m/h 0 %
23:00:00 clear sky 14.060 14.060 14.060 36 2.12 m/h 0 %

Famous Cities (61)